sensor_id;sensor_type;location;lat;lon;timestamp;P1;durP1;ratioP1;P2;durP2;ratioP2
9280;SDS011;4679;47.966;7.958;2024-03-02T07:35:51;0.70;;;0.60;;
9280;SDS011;4679;47.966;7.958;2024-03-02T07:37:53;1.37;;;0.53;;
9280;SDS011;4679;47.966;7.958;2024-03-02T07:39:55;0.93;;;0.70;;
9280;SDS011;4679;47.966;7.958;2024-03-02T07:41:57;0.80;;;0.50;;
9280;SDS011;4679;47.966;7.958;2024-03-02T07:43:59;1.17;;;0.50;;
9280;SDS011;4679;47.966;7.958;2024-03-02T07:46:01;0.40;;;0.40;;
9280;SDS011;4679;47.966;7.958;2024-03-02T07:48:03;1.63;;;0.50;;
9280;SDS011;4679;47.966;7.958;2024-03-02T07:50:05;1.10;;;0.60;;
9280;SDS011;4679;47.966;7.958;2024-03-02T07:52:08;0.67;;;0.50;;
9280;SDS011;4679;47.966;7.958;2024-03-02T07:54:10;1.40;;;0.40;;
9280;SDS011;4679;47.966;7.958;2024-03-02T07:56:12;0.40;;;0.40;;
9280;SDS011;4679;47.966;7.958;2024-03-02T07:58:13;0.97;;;0.70;;
9280;SDS011;4679;47.966;7.958;2024-03-02T08:00:15;0.77;;;0.60;;
9280;SDS011;4679;47.966;7.958;2024-03-02T08:02:17;0.50;;;0.50;;
9280;SDS011;4679;47.966;7.958;2024-03-02T08:04:19;0.50;;;0.50;;
9280;SDS011;4679;47.966;7.958;2024-03-02T08:06:20;0.50;;;0.50;;
9280;SDS011;4679;47.966;7.958;2024-03-02T08:08:23;0.47;;;0.40;;
9280;SDS011;4679;47.966;7.958;2024-03-02T08:10:25;0.47;;;0.33;;
9280;SDS011;4679;47.966;7.958;2024-03-02T08:12:26;0.40;;;0.40;;
9280;SDS011;4679;47.966;7.958;2024-03-02T08:14:27;0.60;;;0.40;;
9280;SDS011;4679;47.966;7.958;2024-03-02T08:16:28;0.60;;;0.50;;
9280;SDS011;4679;47.966;7.958;2024-03-02T08:18:30;1.10;;;1.00;;
9280;SDS011;4679;47.966;7.958;2024-03-02T08:20:31;2.57;;;2.00;;
9280;SDS011;4679;47.966;7.958;2024-03-02T08:22:32;1.23;;;1.00;;
9280;SDS011;4679;47.966;7.958;2024-03-02T08:24:36;0.40;;;0.40;;
9280;SDS011;4679;47.966;7.958;2024-03-02T08:26:38;0.87;;;0.40;;
9280;SDS011;4679;47.966;7.958;2024-03-02T08:28:39;2.50;;;0.50;;
9280;SDS011;4679;47.966;7.958;2024-03-02T08:30:41;0.50;;;0.50;;
9280;SDS011;4679;47.966;7.958;2024-03-02T08:32:43;0.50;;;0.50;;
9280;SDS011;4679;47.966;7.958;2024-03-02T08:34:45;0.60;;;0.60;;
9280;SDS011;4679;47.966;7.958;2024-03-02T08:36:46;0.37;;;0.37;;
9280;SDS011;4679;47.966;7.958;2024-03-02T08:38:48;1.07;;;0.40;;
9280;SDS011;4679;47.966;7.958;2024-03-02T08:40:52;0.60;;;0.60;;
9280;SDS011;4679;47.966;7.958;2024-03-02T08:42:53;0.73;;;0.30;;
9280;SDS011;4679;47.966;7.958;2024-03-02T08:44:55;0.60;;;0.40;;
9280;SDS011;4679;47.966;7.958;2024-03-02T08:46:57;0.47;;;0.47;;
9280;SDS011;4679;47.966;7.958;2024-03-02T08:48:58;0.77;;;0.30;;
9280;SDS011;4679;47.966;7.958;2024-03-02T08:51:00;0.43;;;0.43;;
9280;SDS011;4679;47.966;7.958;2024-03-02T08:53:03;0.67;;;0.40;;
9280;SDS011;4679;47.966;7.958;2024-03-02T08:55:04;1.27;;;0.40;;
9280;SDS011;4679;47.966;7.958;2024-03-02T08:57:08;0.40;;;0.40;;
9280;SDS011;4679;47.966;7.958;2024-03-02T08:59:10;0.30;;;0.30;;
9280;SDS011;4679;47.966;7.958;2024-03-02T09:01:11;0.40;;;0.40;;
9280;SDS011;4679;47.966;7.958;2024-03-02T09:03:13;0.47;;;0.40;;
9280;SDS011;4679;47.966;7.958;2024-03-02T09:05:15;0.50;;;0.50;;
9280;SDS011;4679;47.966;7.958;2024-03-02T09:07:16;0.83;;;0.63;;
9280;SDS011;4679;47.966;7.958;2024-03-02T09:09:18;2.07;;;0.70;;
9280;SDS011;4679;47.966;7.958;2024-03-02T09:11:19;0.57;;;0.53;;
9280;SDS011;4679;47.966;7.958;2024-03-02T09:13:22;1.03;;;0.63;;
9280;SDS011;4679;47.966;7.958;2024-03-02T09:15:23;0.80;;;0.47;;
9280;SDS011;4679;47.966;7.958;2024-03-02T09:17:25;0.53;;;0.50;;
9280;SDS011;4679;47.966;7.958;2024-03-02T09:19:26;0.40;;;0.40;;
9280;SDS011;4679;47.966;7.958;2024-03-02T09:21:28;0.77;;;0.50;;
9280;SDS011;4679;47.966;7.958;2024-03-02T09:23:30;0.40;;;0.40;;
9280;SDS011;4679;47.966;7.958;2024-03-02T09:25:31;0.50;;;0.47;;
9280;SDS011;4679;47.966;7.958;2024-03-02T09:27:33;0.60;;;0.40;;
9280;SDS011;4679;47.966;7.958;2024-03-02T09:29:38;1.27;;;0.50;;
9280;SDS011;4679;47.966;7.958;2024-03-02T09:31:39;1.03;;;0.50;;
9280;SDS011;4679;47.966;7.958;2024-03-02T09:33:40;0.33;;;0.33;;
9280;SDS011;4679;47.966;7.958;2024-03-02T09:35:42;0.60;;;0.50;;
9280;SDS011;4679;47.966;7.958;2024-03-02T09:37:43;0.47;;;0.40;;
9280;SDS011;4679;47.966;7.958;2024-03-02T09:39:45;0.50;;;0.40;;
9280;SDS011;4679;47.966;7.958;2024-03-02T09:41:46;0.50;;;0.40;;
9280;SDS011;4679;47.966;7.958;2024-03-02T09:43:48;0.30;;;0.30;;
9280;SDS011;4679;47.966;7.958;2024-03-02T09:45:51;0.30;;;0.30;;
9280;SDS011;4679;47.966;7.958;2024-03-02T09:47:54;0.87;;;0.40;;
9280;SDS011;4679;47.966;7.958;2024-03-02T09:49:56;0.30;;;0.30;;
9280;SDS011;4679;47.966;7.958;2024-03-02T09:51:57;0.40;;;0.40;;
9280;SDS011;4679;47.966;7.958;2024-03-02T09:53:59;1.23;;;0.30;;
9280;SDS011;4679;47.966;7.958;2024-03-02T09:56:02;0.20;;;0.20;;
9280;SDS011;4679;47.966;7.958;2024-03-02T09:58:04;0.20;;;0.20;;
9280;SDS011;4679;47.966;7.958;2024-03-02T10:00:05;0.30;;;0.20;;
9280;SDS011;4679;47.966;7.958;2024-03-02T10:02:09;0.30;;;0.30;;
9280;SDS011;4679;47.966;7.958;2024-03-02T10:04:11;0.30;;;0.30;;
9280;SDS011;4679;47.966;7.958;2024-03-02T10:06:20;0.30;;;0.30;;
9280;SDS011;4679;47.966;7.958;2024-03-02T10:08:22;0.40;;;0.20;;
9280;SDS011;4679;47.966;7.958;2024-03-02T10:10:26;1.13;;;0.20;;
9280;SDS011;4679;47.966;7.958;2024-03-02T10:12:34;0.20;;;0.20;;
9280;SDS011;4679;47.966;7.958;2024-03-02T10:14:36;0.20;;;0.20;;
9280;SDS011;4679;47.966;7.958;2024-03-02T10:16:37;0.50;;;0.50;;
9280;SDS011;4679;47.966;7.958;2024-03-02T10:18:42;0.40;;;0.40;;
9280;SDS011;4679;47.966;7.958;2024-03-02T10:20:43;0.20;;;0.20;;
9280;SDS011;4679;47.966;7.958;2024-03-02T10:22:45;0.20;;;0.20;;
9280;SDS011;4679;47.966;7.958;2024-03-02T10:24:46;1.00;;;0.20;;
9280;SDS011;4679;47.966;7.958;2024-03-02T10:26:47;0.20;;;0.20;;
9280;SDS011;4679;47.966;7.958;2024-03-02T10:28:48;0.23;;;0.23;;
9280;SDS011;4679;47.966;7.958;2024-03-02T10:30:52;1.30;;;0.10;;
9280;SDS011;4679;47.966;7.958;2024-03-02T10:32:54;1.50;;;0.20;;
9280;SDS011;4679;47.966;7.958;2024-03-02T10:34:57;0.20;;;0.20;;
9280;SDS011;4679;47.966;7.958;2024-03-02T10:36:59;1.40;;;0.20;;
9280;SDS011;4679;47.966;7.958;2024-03-02T10:39:02;0.10;;;0.10;;
9280;SDS011;4679;47.966;7.958;2024-03-02T10:41:04;0.20;;;0.20;;
9280;SDS011;4679;47.966;7.958;2024-03-02T10:43:05;0.20;;;0.13;;
9280;SDS011;4679;47.966;7.958;2024-03-02T10:45:09;0.17;;;0.17;;
9280;SDS011;4679;47.966;7.958;2024-03-02T10:47:12;0.20;;;0.20;;
9280;SDS011;4679;47.966;7.958;2024-03-02T10:49:14;1.60;;;0.20;;
9280;SDS011;4679;47.966;7.958;2024-03-02T10:51:17;0.10;;;0.10;;
9280;SDS011;4679;47.966;7.958;2024-03-02T10:53:17;0.20;;;0.20;;
9280;SDS011;4679;47.966;7.958;2024-03-02T10:55:19;0.20;;;0.20;;
9280;SDS011;4679;47.966;7.958;2024-03-02T10:57:21;0.60;;;0.20;;
9280;SDS011;4679;47.966;7.958;2024-03-02T10:59:24;0.37;;;0.27;;
9280;SDS011;4679;47.966;7.958;2024-03-02T11:01:29;0.60;;;0.10;;
9280;SDS011;4679;47.966;7.958;2024-03-02T11:03:33;0.33;;;0.30;;
9280;SDS011;4679;47.966;7.958;2024-03-02T11:05:38;1.00;;;0.20;;
9280;SDS011;4679;47.966;7.958;2024-03-02T11:07:43;0.20;;;0.20;;
9280;SDS011;4679;47.966;7.958;2024-03-02T11:09:48;1.33;;;0.20;;
9280;SDS011;4679;47.966;7.958;2024-03-02T11:11:56;0.10;;;0.10;;
9280;SDS011;4679;47.966;7.958;2024-03-02T11:14:04;0.30;;;0.30;;
9280;SDS011;4679;47.966;7.958;2024-03-02T11:16:11;0.30;;;0.17;;
9280;SDS011;4679;47.966;7.958;2024-03-02T11:18:22;0.30;;;0.30;;
9280;SDS011;4679;47.966;7.958;2024-03-02T11:20:25;0.57;;;0.20;;
9280;SDS011;4679;47.966;7.958;2024-03-02T11:22:28;0.50;;;0.50;;
9280;SDS011;4679;47.966;7.958;2024-03-02T11:24:32;0.13;;;0.10;;
9280;SDS011;4679;47.966;7.958;2024-03-02T11:26:34;0.10;;;0.10;;
9280;SDS011;4679;47.966;7.958;2024-03-02T11:28:40;0.17;;;0.17;;
9280;SDS011;4679;47.966;7.958;2024-03-02T11:30:51;0.10;;;0.10;;
9280;SDS011;4679;47.966;7.958;2024-03-02T11:32:54;0.10;;;0.10;;
9280;SDS011;4679;47.966;7.958;2024-03-02T11:34:56;0.20;;;0.20;;
9280;SDS011;4679;47.966;7.958;2024-03-02T11:36:58;0.20;;;0.20;;
9280;SDS011;4679;47.966;7.958;2024-03-02T11:38:59;0.97;;;0.20;;
9280;SDS011;4679;47.966;7.958;2024-03-02T11:41:02;0.50;;;0.20;;
9280;SDS011;4679;47.966;7.958;2024-03-02T11:43:08;0.10;;;0.10;;
9280;SDS011;4679;47.966;7.958;2024-03-02T11:45:11;0.20;;;0.20;;
9280;SDS011;4679;47.966;7.958;2024-03-02T11:47:12;0.30;;;0.23;;
9280;SDS011;4679;47.966;7.958;2024-03-02T11:49:16;1.50;;;0.20;;
9280;SDS011;4679;47.966;7.958;2024-03-02T11:51:37;0.10;;;0.10;;
9280;SDS011;4679;47.966;7.958;2024-03-02T11:53:51;0.30;;;0.20;;
9280;SDS011;4679;47.966;7.958;2024-03-02T11:55:56;0.10;;;0.10;;
9280;SDS011;4679;47.966;7.958;2024-03-02T11:58:01;0.20;;;0.20;;
9280;SDS011;4679;47.966;7.958;2024-03-02T12:00:04;0.20;;;0.20;;
9280;SDS011;4679;47.966;7.958;2024-03-02T12:02:06;0.20;;;0.20;;
9280;SDS011;4679;47.966;7.958;2024-03-02T12:04:15;0.30;;;0.20;;
9280;SDS011;4679;47.966;7.958;2024-03-02T12:06:17;1.03;;;0.10;;
9280;SDS011;4679;47.966;7.958;2024-03-02T12:08:21;0.20;;;0.20;;
9280;SDS011;4679;47.966;7.958;2024-03-02T12:10:23;0.30;;;0.23;;
9280;SDS011;4679;47.966;7.958;2024-03-02T12:12:25;0.70;;;0.60;;
9280;SDS011;4679;47.966;7.958;2024-03-02T12:14:28;0.30;;;0.30;;
9280;SDS011;4679;47.966;7.958;2024-03-02T12:16:29;0.20;;;0.20;;
9280;SDS011;4679;47.966;7.958;2024-03-02T12:18:30;0.10;;;0.10;;
9280;SDS011;4679;47.966;7.958;2024-03-02T12:20:32;0.30;;;0.30;;
9280;SDS011;4679;47.966;7.958;2024-03-02T12:22:35;1.10;;;0.33;;
9280;SDS011;4679;47.966;7.958;2024-03-02T12:24:36;0.23;;;0.20;;
9280;SDS011;4679;47.966;7.958;2024-03-02T12:26:39;0.30;;;0.30;;
9280;SDS011;4679;47.966;7.958;2024-03-02T12:28:41;0.20;;;0.20;;
9280;SDS011;4679;47.966;7.958;2024-03-02T12:30:44;0.20;;;0.20;;
9280;SDS011;4679;47.966;7.958;2024-03-02T12:32:47;1.07;;;0.30;;
9280;SDS011;4679;47.966;7.958;2024-03-02T12:34:50;0.27;;;0.10;;
9280;SDS011;4679;47.966;7.958;2024-03-02T12:36:51;0.30;;;0.30;;
9280;SDS011;4679;47.966;7.958;2024-03-02T12:38:53;0.10;;;0.10;;
9280;SDS011;4679;47.966;7.958;2024-03-02T12:40:55;0.40;;;0.20;;
9280;SDS011;4679;47.966;7.958;2024-03-02T12:42:57;0.67;;;0.20;;
9280;SDS011;4679;47.966;7.958;2024-03-02T12:44:57;0.20;;;0.20;;
9280;SDS011;4679;47.966;7.958;2024-03-02T12:47:00;0.60;;;0.30;;
9280;SDS011;4679;47.966;7.958;2024-03-02T12:49:05;0.40;;;0.30;;
9280;SDS011;4679;47.966;7.958;2024-03-02T12:51:09;0.53;;;0.30;;
9280;SDS011;4679;47.966;7.958;2024-03-02T12:53:14;0.20;;;0.20;;
9280;SDS011;4679;47.966;7.958;2024-03-02T12:55:16;0.93;;;0.30;;
9280;SDS011;4679;47.966;7.958;2024-03-02T12:57:18;0.30;;;0.30;;
9280;SDS011;4679;47.966;7.958;2024-03-02T12:59:20;0.80;;;0.20;;
9280;SDS011;4679;47.966;7.958;2024-03-02T13:01:26;0.10;;;0.10;;
9280;SDS011;4679;47.966;7.958;2024-03-02T13:03:30;0.50;;;0.20;;
9280;SDS011;4679;47.966;7.958;2024-03-02T13:05:30;0.30;;;0.20;;
9280;SDS011;4679;47.966;7.958;2024-03-02T13:07:32;0.30;;;0.30;;
9280;SDS011;4679;47.966;7.958;2024-03-02T13:09:35;0.23;;;0.20;;
9280;SDS011;4679;47.966;7.958;2024-03-02T13:11:38;0.20;;;0.20;;
9280;SDS011;4679;47.966;7.958;2024-03-02T13:13:39;0.20;;;0.20;;
9280;SDS011;4679;47.966;7.958;2024-03-02T13:15:41;0.47;;;0.30;;
9280;SDS011;4679;47.966;7.958;2024-03-02T13:17:44;0.20;;;0.20;;
9280;SDS011;4679;47.966;7.958;2024-03-02T13:19:53;0.23;;;0.20;;
9280;SDS011;4679;47.966;7.958;2024-03-02T13:21:56;0.47;;;0.10;;
9280;SDS011;4679;47.966;7.958;2024-03-02T13:23:58;0.63;;;0.20;;
9280;SDS011;4679;47.966;7.958;2024-03-02T13:26:00;0.20;;;0.20;;
9280;SDS011;4679;47.966;7.958;2024-03-02T13:28:02;0.20;;;0.20;;
9280;SDS011;4679;47.966;7.958;2024-03-02T13:30:04;0.47;;;0.27;;
9280;SDS011;4679;47.966;7.958;2024-03-02T13:32:09;0.30;;;0.27;;
9280;SDS011;4679;47.966;7.958;2024-03-02T13:34:11;0.47;;;0.20;;
9280;SDS011;4679;47.966;7.958;2024-03-02T13:36:13;0.20;;;0.20;;
9280;SDS011;4679;47.966;7.958;2024-03-02T13:38:14;0.27;;;0.27;;
9280;SDS011;4679;47.966;7.958;2024-03-02T13:40:16;0.93;;;0.37;;
9280;SDS011;4679;47.966;7.958;2024-03-02T13:42:20;1.33;;;0.13;;
9280;SDS011;4679;47.966;7.958;2024-03-02T13:44:21;0.23;;;0.23;;
9280;SDS011;4679;47.966;7.958;2024-03-02T13:46:23;0.50;;;0.20;;
9280;SDS011;4679;47.966;7.958;2024-03-02T13:48:25;0.30;;;0.30;;
9280;SDS011;4679;47.966;7.958;2024-03-02T13:50:27;0.20;;;0.20;;
9280;SDS011;4679;47.966;7.958;2024-03-02T13:52:28;0.30;;;0.30;;
9280;SDS011;4679;47.966;7.958;2024-03-02T13:54:30;0.20;;;0.20;;
9280;SDS011;4679;47.966;7.958;2024-03-02T13:56:31;0.30;;;0.30;;
9280;SDS011;4679;47.966;7.958;2024-03-02T13:58:33;0.30;;;0.20;;
9280;SDS011;4679;47.966;7.958;2024-03-02T14:00:34;0.20;;;0.20;;
9280;SDS011;4679;47.966;7.958;2024-03-02T14:02:37;0.40;;;0.40;;
9280;SDS011;4679;47.966;7.958;2024-03-02T14:04:39;1.20;;;0.50;;
9280;SDS011;4679;47.966;7.958;2024-03-02T14:06:40;1.20;;;0.70;;
9280;SDS011;4679;47.966;7.958;2024-03-02T14:08:45;1.97;;;1.30;;
9280;SDS011;4679;47.966;7.958;2024-03-02T14:10:48;0.67;;;0.67;;
9280;SDS011;4679;47.966;7.958;2024-03-02T14:12:50;0.33;;;0.30;;
9280;SDS011;4679;47.966;7.958;2024-03-02T14:14:51;1.03;;;0.33;;
9280;SDS011;4679;47.966;7.958;2024-03-02T14:16:55;0.20;;;0.20;;
9280;SDS011;4679;47.966;7.958;2024-03-02T14:18:56;0.40;;;0.30;;
9280;SDS011;4679;47.966;7.958;2024-03-02T14:20:59;0.57;;;0.50;;
9280;SDS011;4679;47.966;7.958;2024-03-02T14:23:01;0.60;;;0.40;;
9280;SDS011;4679;47.966;7.958;2024-03-02T14:25:04;1.13;;;0.50;;
9280;SDS011;4679;47.966;7.958;2024-03-02T14:27:06;1.17;;;1.03;;
9280;SDS011;4679;47.966;7.958;2024-03-02T14:29:08;0.83;;;0.77;;
9280;SDS011;4679;47.966;7.958;2024-03-02T14:31:09;0.80;;;0.70;;
9280;SDS011;4679;47.966;7.958;2024-03-02T14:33:10;0.40;;;0.40;;
9280;SDS011;4679;47.966;7.958;2024-03-02T14:35:12;2.00;;;0.30;;
9280;SDS011;4679;47.966;7.958;2024-03-02T14:37:13;0.30;;;0.30;;
9280;SDS011;4679;47.966;7.958;2024-03-02T14:39:16;0.30;;;0.30;;
9280;SDS011;4679;47.966;7.958;2024-03-02T14:41:20;1.63;;;0.40;;
9280;SDS011;4679;47.966;7.958;2024-03-02T14:43:24;0.60;;;0.43;;
9280;SDS011;4679;47.966;7.958;2024-03-02T14:45:25;0.70;;;0.60;;
9280;SDS011;4679;47.966;7.958;2024-03-02T14:47:27;1.00;;;0.80;;
9280;SDS011;4679;47.966;7.958;2024-03-02T14:49:27;1.33;;;1.23;;
9280;SDS011;4679;47.966;7.958;2024-03-02T14:51:29;1.33;;;1.23;;
9280;SDS011;4679;47.966;7.958;2024-03-02T14:53:31;0.77;;;0.60;;
9280;SDS011;4679;47.966;7.958;2024-03-02T14:55:32;0.80;;;0.60;;
9280;SDS011;4679;47.966;7.958;2024-03-02T14:57:36;2.00;;;0.67;;
9280;SDS011;4679;47.966;7.958;2024-03-02T14:59:38;1.07;;;0.60;;
9280;SDS011;4679;47.966;7.958;2024-03-02T15:01:39;1.77;;;0.70;;
9280;SDS011;4679;47.966;7.958;2024-03-02T15:03:40;0.40;;;0.40;;
9280;SDS011;4679;47.966;7.958;2024-03-02T15:05:41;0.40;;;0.40;;
9280;SDS011;4679;47.966;7.958;2024-03-02T15:07:43;0.70;;;0.50;;
9280;SDS011;4679;47.966;7.958;2024-03-02T15:09:44;0.43;;;0.43;;
9280;SDS011;4679;47.966;7.958;2024-03-02T15:11:45;0.40;;;0.40;;
9280;SDS011;4679;47.966;7.958;2024-03-02T15:13:49;0.40;;;0.40;;
9280;SDS011;4679;47.966;7.958;2024-03-02T15:15:50;0.50;;;0.50;;
9280;SDS011;4679;47.966;7.958;2024-03-02T15:17:51;0.33;;;0.30;;
9280;SDS011;4679;47.966;7.958;2024-03-02T15:19:53;0.80;;;0.50;;
9280;SDS011;4679;47.966;7.958;2024-03-02T15:21:54;0.57;;;0.50;;
9280;SDS011;4679;47.966;7.958;2024-03-02T15:23:56;1.03;;;0.70;;
9280;SDS011;4679;47.966;7.958;2024-03-02T15:25:58;1.67;;;0.83;;
9280;SDS011;4679;47.966;7.958;2024-03-02T15:28:00;1.33;;;0.60;;
9280;SDS011;4679;47.966;7.958;2024-03-02T15:30:03;0.47;;;0.47;;
9280;SDS011;4679;47.966;7.958;2024-03-02T15:32:06;0.50;;;0.50;;
9280;SDS011;4679;47.966;7.958;2024-03-02T15:34:08;0.63;;;0.60;;
9280;SDS011;4679;47.966;7.958;2024-03-02T15:36:09;0.43;;;0.43;;
9280;SDS011;4679;47.966;7.958;2024-03-02T15:38:10;0.50;;;0.40;;
9280;SDS011;4679;47.966;7.958;2024-03-02T15:40:12;0.40;;;0.40;;
9280;SDS011;4679;47.966;7.958;2024-03-02T15:42:13;0.90;;;0.43;;
9280;SDS011;4679;47.966;7.958;2024-03-02T15:44:15;1.40;;;1.07;;
9280;SDS011;4679;47.966;7.958;2024-03-02T15:46:17;1.00;;;0.90;;
9280;SDS011;4679;47.966;7.958;2024-03-02T15:48:19;0.60;;;0.60;;
9280;SDS011;4679;47.966;7.958;2024-03-02T15:50:20;0.63;;;0.60;;
9280;SDS011;4679;47.966;7.958;2024-03-02T15:52:22;0.30;;;0.30;;
9280;SDS011;4679;47.966;7.958;2024-03-02T15:54:23;0.83;;;0.50;;
9280;SDS011;4679;47.966;7.958;2024-03-02T15:56:25;0.77;;;0.50;;
9280;SDS011;4679;47.966;7.958;2024-03-02T15:58:25;0.50;;;0.40;;
9280;SDS011;4679;47.966;7.958;2024-03-02T16:00:27;0.50;;;0.47;;
9280;SDS011;4679;47.966;7.958;2024-03-02T16:02:30;0.33;;;0.33;;
9280;SDS011;4679;47.966;7.958;2024-03-02T16:04:32;1.37;;;0.40;;
9280;SDS011;4679;47.966;7.958;2024-03-02T16:06:33;2.67;;;0.50;;
9280;SDS011;4679;47.966;7.958;2024-03-02T16:08:35;1.60;;;0.40;;
9280;SDS011;4679;47.966;7.958;2024-03-02T16:10:36;1.03;;;0.40;;
9280;SDS011;4679;47.966;7.958;2024-03-02T16:12:37;0.30;;;0.30;;
9280;SDS011;4679;47.966;7.958;2024-03-02T16:14:39;0.40;;;0.37;;
9280;SDS011;4679;47.966;7.958;2024-03-02T16:16:40;0.70;;;0.30;;
9280;SDS011;4679;47.966;7.958;2024-03-02T16:18:43;0.50;;;0.50;;
9280;SDS011;4679;47.966;7.958;2024-03-02T16:20:45;1.30;;;0.60;;
9280;SDS011;4679;47.966;7.958;2024-03-02T16:22:46;1.20;;;0.43;;
9280;SDS011;4679;47.966;7.958;2024-03-02T16:24:48;0.50;;;0.50;;
9280;SDS011;4679;47.966;7.958;2024-03-02T16:26:50;0.70;;;0.67;;
9280;SDS011;4679;47.966;7.958;2024-03-02T16:28:51;0.60;;;0.60;;
9280;SDS011;4679;47.966;7.958;2024-03-02T16:30:52;0.43;;;0.43;;
9280;SDS011;4679;47.966;7.958;2024-03-02T16:32:54;0.40;;;0.40;;
9280;SDS011;4679;47.966;7.958;2024-03-02T16:34:57;1.63;;;0.60;;
9280;SDS011;4679;47.966;7.958;2024-03-02T16:36:58;0.80;;;0.60;;
9280;SDS011;4679;47.966;7.958;2024-03-02T16:38:59;0.97;;;0.53;;
9280;SDS011;4679;47.966;7.958;2024-03-02T16:41:01;1.60;;;0.40;;
9280;SDS011;4679;47.966;7.958;2024-03-02T16:43:02;3.10;;;0.60;;
9280;SDS011;4679;47.966;7.958;2024-03-02T16:45:03;0.57;;;0.50;;
9280;SDS011;4679;47.966;7.958;2024-03-02T16:47:05;0.87;;;0.43;;
9280;SDS011;4679;47.966;7.958;2024-03-02T16:49:07;0.50;;;0.50;;
9280;SDS011;4679;47.966;7.958;2024-03-02T16:51:10;0.80;;;0.60;;
9280;SDS011;4679;47.966;7.958;2024-03-02T16:53:12;1.00;;;0.60;;
9280;SDS011;4679;47.966;7.958;2024-03-02T16:55:15;0.50;;;0.50;;
9280;SDS011;4679;47.966;7.958;2024-03-02T16:57:18;1.53;;;0.60;;
9280;SDS011;4679;47.966;7.958;2024-03-02T16:59:20;1.10;;;0.60;;
9280;SDS011;4679;47.966;7.958;2024-03-02T17:01:21;2.10;;;0.80;;
9280;SDS011;4679;47.966;7.958;2024-03-02T17:03:22;1.93;;;0.80;;
9280;SDS011;4679;47.966;7.958;2024-03-02T17:05:24;1.03;;;0.80;;
9280;SDS011;4679;47.966;7.958;2024-03-02T17:07:27;1.17;;;0.50;;
9280;SDS011;4679;47.966;7.958;2024-03-02T17:09:30;0.70;;;0.70;;
9280;SDS011;4679;47.966;7.958;2024-03-02T17:11:32;0.83;;;0.50;;
9280;SDS011;4679;47.966;7.958;2024-03-02T17:13:35;0.60;;;0.60;;
9280;SDS011;4679;47.966;7.958;2024-03-02T17:15:36;0.70;;;0.67;;
9280;SDS011;4679;47.966;7.958;2024-03-02T17:17:38;0.70;;;0.63;;
9280;SDS011;4679;47.966;7.958;2024-03-02T17:19:39;0.80;;;0.80;;
9280;SDS011;4679;47.966;7.958;2024-03-02T17:21:41;0.93;;;0.80;;
9280;SDS011;4679;47.966;7.958;2024-03-02T17:23:44;2.20;;;1.10;;
9280;SDS011;4679;47.966;7.958;2024-03-02T17:25:45;1.60;;;1.33;;
9280;SDS011;4679;47.966;7.958;2024-03-02T17:27:47;2.10;;;1.23;;
9280;SDS011;4679;47.966;7.958;2024-03-02T17:29:48;2.43;;;1.70;;
9280;SDS011;4679;47.966;7.958;2024-03-02T17:31:50;1.90;;;1.47;;
9280;SDS011;4679;47.966;7.958;2024-03-02T17:33:51;1.90;;;1.30;;
9280;SDS011;4679;47.966;7.958;2024-03-02T17:35:52;3.77;;;1.90;;
9280;SDS011;4679;47.966;7.958;2024-03-02T17:37:54;3.23;;;1.70;;
9280;SDS011;4679;47.966;7.958;2024-03-02T17:39:57;2.20;;;1.10;;
9280;SDS011;4679;47.966;7.958;2024-03-02T17:41:57;1.53;;;1.10;;
9280;SDS011;4679;47.966;7.958;2024-03-02T17:43:59;4.43;;;1.20;;
9280;SDS011;4679;47.966;7.958;2024-03-02T17:46:00;1.17;;;0.87;;
9280;SDS011;4679;47.966;7.958;2024-03-02T17:48:03;0.90;;;0.83;;
9280;SDS011;4679;47.966;7.958;2024-03-02T17:50:05;2.63;;;1.40;;
9280;SDS011;4679;47.966;7.958;2024-03-02T17:52:08;1.53;;;1.37;;
9280;SDS011;4679;47.966;7.958;2024-03-02T17:54:09;0.87;;;0.87;;
9280;SDS011;4679;47.966;7.958;2024-03-02T17:56:12;0.90;;;0.90;;
9280;SDS011;4679;47.966;7.958;2024-03-02T17:58:14;1.43;;;1.30;;
9280;SDS011;4679;47.966;7.958;2024-03-02T18:00:16;1.43;;;1.23;;
9280;SDS011;4679;47.966;7.958;2024-03-02T18:02:19;1.57;;;0.97;;
9280;SDS011;4679;47.966;7.958;2024-03-02T18:04:21;1.97;;;1.20;;
9280;SDS011;4679;47.966;7.958;2024-03-02T18:06:23;2.27;;;0.87;;
9280;SDS011;4679;47.966;7.958;2024-03-02T18:08:24;2.67;;;1.50;;
9280;SDS011;4679;47.966;7.958;2024-03-02T18:10:26;3.03;;;2.17;;
9280;SDS011;4679;47.966;7.958;2024-03-02T18:12:30;2.70;;;1.90;;
9280;SDS011;4679;47.966;7.958;2024-03-02T18:14:32;30.50;;;16.97;;
9280;SDS011;4679;47.966;7.958;2024-03-02T18:16:33;26.43;;;15.43;;
9280;SDS011;4679;47.966;7.958;2024-03-02T18:18:35;14.83;;;9.63;;
9280;SDS011;4679;47.966;7.958;2024-03-02T18:20:36;9.80;;;6.13;;
9280;SDS011;4679;47.966;7.958;2024-03-02T18:22:38;3.13;;;1.77;;
9280;SDS011;4679;47.966;7.958;2024-03-02T18:24:40;1.73;;;1.20;;
9280;SDS011;4679;47.966;7.958;2024-03-02T18:26:41;1.60;;;1.33;;
9280;SDS011;4679;47.966;7.958;2024-03-02T18:28:44;1.70;;;1.60;;
9280;SDS011;4679;47.966;7.958;2024-03-02T18:30:46;4.03;;;2.10;;
9280;SDS011;4679;47.966;7.958;2024-03-02T18:32:46;4.93;;;2.20;;
9280;SDS011;4679;47.966;7.958;2024-03-02T18:34:48;2.00;;;1.10;;
9280;SDS011;4679;47.966;7.958;2024-03-02T18:36:49;1.40;;;1.20;;
9280;SDS011;4679;47.966;7.958;2024-03-02T18:38:50;1.43;;;1.17;;
9280;SDS011;4679;47.966;7.958;2024-03-02T18:40:52;1.93;;;1.23;;
9280;SDS011;4679;47.966;7.958;2024-03-02T18:42:54;1.40;;;1.30;;
9280;SDS011;4679;47.966;7.958;2024-03-02T18:44:56;2.53;;;1.60;;
9280;SDS011;4679;47.966;7.958;2024-03-02T18:46:57;1.97;;;1.40;;
9280;SDS011;4679;47.966;7.958;2024-03-02T18:48:59;2.37;;;1.60;;
9280;SDS011;4679;47.966;7.958;2024-03-02T18:51:04;2.20;;;1.60;;
9280;SDS011;4679;47.966;7.958;2024-03-02T18:53:06;1.80;;;1.70;;
9280;SDS011;4679;47.966;7.958;2024-03-02T18:55:08;1.50;;;1.40;;
9280;SDS011;4679;47.966;7.958;2024-03-02T18:57:12;2.73;;;1.90;;
9280;SDS011;4679;47.966;7.958;2024-03-02T18:59:13;3.20;;;1.83;;
9280;SDS011;4679;47.966;7.958;2024-03-02T19:01:16;2.00;;;1.80;;
9280;SDS011;4679;47.966;7.958;2024-03-02T19:03:17;1.63;;;1.40;;
9280;SDS011;4679;47.966;7.958;2024-03-02T19:05:19;4.93;;;1.67;;
9280;SDS011;4679;47.966;7.958;2024-03-02T19:07:20;2.43;;;1.40;;
9280;SDS011;4679;47.966;7.958;2024-03-02T19:09:22;2.07;;;1.83;;
9280;SDS011;4679;47.966;7.958;2024-03-02T19:11:24;1.37;;;1.00;;
9280;SDS011;4679;47.966;7.958;2024-03-02T19:13:26;1.40;;;1.20;;
9280;SDS011;4679;47.966;7.958;2024-03-02T19:15:27;1.00;;;0.90;;
9280;SDS011;4679;47.966;7.958;2024-03-02T19:17:30;1.20;;;1.10;;
9280;SDS011;4679;47.966;7.958;2024-03-02T19:19:32;1.77;;;0.90;;
9280;SDS011;4679;47.966;7.958;2024-03-02T19:21:32;2.03;;;1.10;;
9280;SDS011;4679;47.966;7.958;2024-03-02T19:23:34;1.33;;;1.13;;
9280;SDS011;4679;47.966;7.958;2024-03-02T19:25:36;1.10;;;1.00;;
9280;SDS011;4679;47.966;7.958;2024-03-02T19:27:38;1.77;;;0.97;;
9280;SDS011;4679;47.966;7.958;2024-03-02T19:29:39;0.97;;;0.90;;
9280;SDS011;4679;47.966;7.958;2024-03-02T19:31:41;2.60;;;1.73;;
9280;SDS011;4679;47.966;7.958;2024-03-02T19:33:44;1.30;;;1.20;;
9280;SDS011;4679;47.966;7.958;2024-03-02T19:35:45;0.97;;;0.97;;
9280;SDS011;4679;47.966;7.958;2024-03-02T19:37:47;0.90;;;0.90;;
9280;SDS011;4679;47.966;7.958;2024-03-02T19:39:49;1.97;;;1.10;;
9280;SDS011;4679;47.966;7.958;2024-03-02T19:41:50;1.13;;;1.10;;
9280;SDS011;4679;47.966;7.958;2024-03-02T19:43:51;1.47;;;1.20;;
9280;SDS011;4679;47.966;7.958;2024-03-02T19:45:54;1.37;;;1.17;;
9280;SDS011;4679;47.966;7.958;2024-03-02T19:47:55;1.20;;;1.07;;
9280;SDS011;4679;47.966;7.958;2024-03-02T19:49:58;0.93;;;0.93;;
9280;SDS011;4679;47.966;7.958;2024-03-02T19:52:00;1.17;;;1.10;;
9280;SDS011;4679;47.966;7.958;2024-03-02T19:54:00;1.40;;;1.03;;
9280;SDS011;4679;47.966;7.958;2024-03-02T19:56:03;1.00;;;0.93;;
9280;SDS011;4679;47.966;7.958;2024-03-02T19:58:05;1.57;;;1.47;;
9280;SDS011;4679;47.966;7.958;2024-03-02T20:00:07;1.20;;;1.10;;
9280;SDS011;4679;47.966;7.958;2024-03-02T20:02:10;1.80;;;1.30;;
9280;SDS011;4679;47.966;7.958;2024-03-02T20:04:11;1.43;;;1.33;;
9280;SDS011;4679;47.966;7.958;2024-03-02T20:06:14;1.77;;;1.17;;
9280;SDS011;4679;47.966;7.958;2024-03-02T20:08:16;1.30;;;1.20;;
9280;SDS011;4679;47.966;7.958;2024-03-02T20:10:18;1.80;;;1.60;;
9280;SDS011;4679;47.966;7.958;2024-03-02T20:12:20;2.00;;;1.20;;
9280;SDS011;4679;47.966;7.958;2024-03-02T20:14:21;1.40;;;1.20;;